createdAt,value
2023-05-19T00:02:21.707Z,3.90
2023-05-19T00:05:10.645Z,4.30
2023-05-19T00:08:01.273Z,4.55
2023-05-19T00:10:48.924Z,3.70
2023-05-19T00:13:38.801Z,4.05
2023-05-19T00:16:31.450Z,3.75
2023-05-19T00:22:06.406Z,3.70
2023-05-19T00:24:53.778Z,3.78
2023-05-19T00:27:43.431Z,3.75
2023-05-19T00:30:31.910Z,3.90
2023-05-19T00:33:19.457Z,3.90
2023-05-19T00:36:07.360Z,4.25
2023-05-19T00:38:54.734Z,4.93
2023-05-19T00:41:42.126Z,3.83
2023-05-19T00:44:29.413Z,4.05
2023-05-19T00:47:16.947Z,4.18
2023-05-19T00:50:06.810Z,3.67
2023-05-19T00:52:58.012Z,4.35
2023-05-19T00:55:46.425Z,3.75
2023-05-19T00:58:33.942Z,3.78
2023-05-19T01:01:26.946Z,4.32
2023-05-19T01:04:17.073Z,4.00
2023-05-19T01:07:04.910Z,3.67
2023-05-19T01:09:52.505Z,3.75
2023-05-19T01:12:41.918Z,3.47
2023-05-19T01:15:29.432Z,3.90
2023-05-19T01:18:26.222Z,3.80
2023-05-19T01:21:26.050Z,3.97
2023-05-19T01:24:32.389Z,3.97
2023-05-19T01:27:41.339Z,3.88
2023-05-19T01:30:38.166Z,3.70
2023-05-19T01:33:27.307Z,3.72
2023-05-19T01:36:15.601Z,3.70
2023-05-19T01:39:03.368Z,4.05
2023-05-19T01:41:58.109Z,4.15
2023-05-19T01:44:47.902Z,3.85
2023-05-19T01:47:40.083Z,4.60
2023-05-19T01:50:28.144Z,4.20
2023-05-19T01:53:21.485Z,4.20
2023-05-19T01:56:09.029Z,3.50
2023-05-19T01:59:06.084Z,3.85
2023-05-19T02:01:57.382Z,4.35
2023-05-19T02:04:56.692Z,4.28
2023-05-19T02:08:05.936Z,4.32
2023-05-19T02:11:00.831Z,3.78
2023-05-19T02:13:51.738Z,4.32
2023-05-19T02:16:39.688Z,3.80
2023-05-19T02:19:32.264Z,4.03
2023-05-19T02:22:21.790Z,3.20
2023-05-19T02:25:12.224Z,4.85
2023-05-19T02:27:59.606Z,4.07
2023-05-19T02:30:46.918Z,4.05
2023-05-19T02:33:34.515Z,4.10
2023-05-19T02:36:23.937Z,4.25
2023-05-19T02:39:13.917Z,4.22
2023-05-19T02:42:04.158Z,3.95
2023-05-19T02:44:51.724Z,4.65
2023-05-19T02:47:39.215Z,3.85
2023-05-19T02:50:26.554Z,3.92
2023-05-19T02:53:13.889Z,4.07
2023-05-19T02:56:01.240Z,3.92
2023-05-19T02:58:48.720Z,4.53
2023-05-19T03:01:37.796Z,3.85
2023-05-19T03:04:25.428Z,3.90
2023-05-19T03:07:13.662Z,3.88
2023-05-19T03:10:06.903Z,4.00
2023-05-19T03:12:57.301Z,4.13
2023-05-19T03:15:45.160Z,4.15
2023-05-19T03:18:32.545Z,4.10
2023-05-19T03:21:19.888Z,4.18
2023-05-19T03:24:09.681Z,4.35
2023-05-19T03:26:57.127Z,4.30
2023-05-19T03:29:46.462Z,4.93
2023-05-19T03:32:34.151Z,4.57
2023-05-19T03:35:23.990Z,4.20
2023-05-19T03:38:11.369Z,4.53
2023-05-19T03:40:58.695Z,4.30
2023-05-19T03:43:46.130Z,4.80
2023-05-19T03:46:33.421Z,5.10
2023-05-19T03:49:20.890Z,4.18
2023-05-19T03:52:08.265Z,4.10
2023-05-19T03:54:58.651Z,4.57
2023-05-19T03:57:46.055Z,4.15
2023-05-19T04:00:35.051Z,4.97
2023-05-19T04:06:49.060Z,3.88
2023-05-19T04:09:38.798Z,5.13
2023-05-19T04:12:29.107Z,4.13
2023-05-19T04:15:16.634Z,5.05
2023-05-19T04:18:06.679Z,3.65
2023-05-19T04:20:56.151Z,4.63
2023-05-19T04:23:43.715Z,3.90
2023-05-19T04:26:35.333Z,4.82
2023-05-19T04:29:23.769Z,4.10
2023-05-19T04:32:11.163Z,4.45
2023-05-19T04:35:00.141Z,4.88
2023-05-19T04:37:47.463Z,4.32
2023-05-19T04:40:35.032Z,4.22
2023-05-19T04:43:22.718Z,4.22
2023-05-19T04:46:18.281Z,4.30
2023-05-19T04:49:08.081Z,4.90
2023-05-19T04:51:56.924Z,4.15
2023-05-19T04:54:44.380Z,4.20
2023-05-19T04:57:34.563Z,4.68
2023-05-19T05:00:29.297Z,4.35
2023-05-19T05:03:16.832Z,4.63
2023-05-19T05:06:04.701Z,4.78
2023-05-19T05:08:54.780Z,4.50
2023-05-19T05:11:42.462Z,4.25
2023-05-19T05:14:30.324Z,8.07
2023-05-19T05:17:20.571Z,4.43
2023-05-19T05:20:08.568Z,4.57
2023-05-19T05:22:57.889Z,4.38
2023-05-19T05:25:48.667Z,4.38
2023-05-19T05:28:35.941Z,3.85
2023-05-19T05:31:23.387Z,3.97
2023-05-19T05:34:10.968Z,4.18
2023-05-19T05:37:00.657Z,3.67
2023-05-19T05:39:47.891Z,3.95
2023-05-19T05:42:35.243Z,4.03
2023-05-19T05:45:33.841Z,3.92
2023-05-19T05:48:21.922Z,4.32
2023-05-19T05:51:10.549Z,4.25
2023-05-19T05:54:01.729Z,4.10
2023-05-19T05:56:51.583Z,4.07
2023-05-19T05:59:38.837Z,4.07
2023-05-19T06:02:32.703Z,3.85
2023-05-19T06:05:27.466Z,3.97
2023-05-19T06:08:14.928Z,3.97
2023-05-19T06:11:08.755Z,4.07
2023-05-19T06:13:56.228Z,4.60
2023-05-19T06:16:43.579Z,4.05
2023-05-19T06:19:33.113Z,3.88
2023-05-19T06:22:22.928Z,4.68
2023-05-19T06:25:10.525Z,4.45
2023-05-19T06:28:00.663Z,3.60
2023-05-19T06:30:50.626Z,4.03
2023-05-19T06:33:37.944Z,4.22
2023-05-19T06:36:26.454Z,4.15
2023-05-19T06:39:13.765Z,5.00
2023-05-19T06:42:02.655Z,4.30
2023-05-19T06:44:53.543Z,4.40
2023-05-19T06:47:45.268Z,4.28
2023-05-19T06:50:35.314Z,4.20
2023-05-19T06:53:24.516Z,4.28
2023-05-19T06:56:11.761Z,4.20
2023-05-19T06:59:01.243Z,3.80
2023-05-19T07:01:51.257Z,3.67
2023-05-19T07:04:39.977Z,4.93
2023-05-19T07:07:27.279Z,3.83
2023-05-19T07:10:17.047Z,3.63
2023-05-19T07:13:04.680Z,3.78
2023-05-19T07:15:55.914Z,3.70
2023-05-19T07:18:46.728Z,4.07
2023-05-19T07:21:35.656Z,4.88
2023-05-19T07:24:28.269Z,3.58
2023-05-19T07:27:19.613Z,4.32
2023-05-19T07:30:08.020Z,4.18
2023-05-19T07:33:00.925Z,4.45
2023-05-19T07:36:13.401Z,4.13
2023-05-19T07:39:04.956Z,4.38
2023-05-19T07:41:56.981Z,4.32
2023-05-19T07:44:45.936Z,4.45
2023-05-19T07:47:34.916Z,4.38
2023-05-19T07:50:24.521Z,4.07
2023-05-19T07:53:11.807Z,4.22
2023-05-19T07:56:05.704Z,4.07
2023-05-19T07:58:56.056Z,4.18
2023-05-19T08:01:49.910Z,3.35
2023-05-19T08:04:37.870Z,4.22
2023-05-19T08:07:28.750Z,4.43
2023-05-19T08:10:38.408Z,3.47
2023-05-19T08:13:26.268Z,3.80
2023-05-19T08:16:16.951Z,3.40
2023-05-19T08:19:08.604Z,3.80
2023-05-19T08:21:56.544Z,4.10
2023-05-19T08:24:46.695Z,4.47
2023-05-19T08:27:34.206Z,4.18
2023-05-19T08:30:21.963Z,4.07
2023-05-19T08:33:25.137Z,3.97
2023-05-19T08:36:15.063Z,4.00
2023-05-19T08:39:03.795Z,3.53
2023-05-19T08:41:54.246Z,3.20
2023-05-19T08:44:44.822Z,4.05
2023-05-19T08:47:35.438Z,3.30
2023-05-19T08:50:27.851Z,3.45
2023-05-19T08:56:28.112Z,3.35
2023-05-19T08:59:17.671Z,3.35
2023-05-19T09:02:07.253Z,3.88
2023-05-19T09:04:55.859Z,4.13
2023-05-19T09:07:44.530Z,5.20
2023-05-19T09:10:32.200Z,3.85
2023-05-19T09:13:21.828Z,3.72
2023-05-19T09:16:09.467Z,3.40
2023-05-19T09:18:57.745Z,3.63
2023-05-19T09:21:46.559Z,4.03
2023-05-19T09:24:34.864Z,3.42
2023-05-19T09:27:24.713Z,3.53
2023-05-19T09:30:25.853Z,3.22
2023-05-19T09:33:19.737Z,3.58
2023-05-19T09:36:12.604Z,3.00
2023-05-19T09:39:04.490Z,3.42
2023-05-19T09:41:54.072Z,2.92
2023-05-19T09:44:42.705Z,3.08
2023-05-19T09:50:46.895Z,3.00
2023-05-19T09:53:35.566Z,3.92
2023-05-19T09:56:26.664Z,3.00
2023-05-19T09:59:16.244Z,3.42
2023-05-19T10:02:10.626Z,3.50
2023-05-19T10:05:00.598Z,3.30
2023-05-19T10:07:54.851Z,4.55
2023-05-19T10:10:45.787Z,3.80
2023-05-19T10:13:39.104Z,3.15
2023-05-19T10:16:28.320Z,3.00
2023-05-19T10:22:22.832Z,3.97
2023-05-19T10:25:11.809Z,4.47
2023-05-19T10:28:21.093Z,3.67
2023-05-19T10:31:13.443Z,3.03
2023-05-19T10:37:44.488Z,3.50
2023-05-19T10:43:53.749Z,3.38
2023-05-19T10:46:44.099Z,3.70
2023-05-19T10:49:38.432Z,3.83
2023-05-19T10:52:32.776Z,3.63
2023-05-19T10:55:53.729Z,3.35
2023-05-19T10:58:43.934Z,3.38
2023-05-19T11:01:36.143Z,3.55
2023-05-19T11:04:51.077Z,3.13
2023-05-19T11:07:54.548Z,3.63
2023-05-19T11:13:31.700Z,3.53
2023-05-19T11:16:49.251Z,3.75
2023-05-19T11:19:37.976Z,3.47
2023-05-19T11:22:27.418Z,3.17
2023-05-19T11:25:39.223Z,3.20
2023-05-19T11:28:29.435Z,3.08
2023-05-19T11:31:16.824Z,3.22
2023-05-19T11:34:06.971Z,3.63
2023-05-19T11:36:57.932Z,3.33
2023-05-19T11:39:46.673Z,3.72
2023-05-19T11:42:36.174Z,3.17
2023-05-19T11:45:27.744Z,3.13
2023-05-19T11:48:20.622Z,3.67
2023-05-19T11:51:10.834Z,3.80
2023-05-19T11:54:03.267Z,4.43
2023-05-19T11:56:55.731Z,5.47
2023-05-19T11:59:48.494Z,13.93
2023-05-19T12:02:36.789Z,5.30
2023-05-19T12:05:26.185Z,4.35
2023-05-19T12:08:13.894Z,3.50
2023-05-19T12:11:04.634Z,3.60
2023-05-19T12:13:55.104Z,2.80
2023-05-19T12:16:42.498Z,3.22
2023-05-19T12:19:31.440Z,2.97
2023-05-19T12:22:24.767Z,3.72
2023-05-19T12:25:19.438Z,3.60
2023-05-19T12:28:07.406Z,3.75
2023-05-19T12:30:58.569Z,3.42
2023-05-19T12:33:55.325Z,3.20
2023-05-19T12:36:45.409Z,4.03
2023-05-19T12:39:33.849Z,3.67
2023-05-19T12:42:21.248Z,3.55
2023-05-19T12:48:51.753Z,3.92
2023-05-19T12:51:56.013Z,4.00
2023-05-19T12:57:58.736Z,4.20
2023-05-19T13:00:51.059Z,3.95
2023-05-19T13:03:43.859Z,4.20
2023-05-19T13:06:35.464Z,5.00
2023-05-19T13:09:28.805Z,5.85
2023-05-19T13:12:16.365Z,4.10
2023-05-19T13:18:13.415Z,4.50
2023-05-19T13:21:04.088Z,5.05
2023-05-19T13:23:56.055Z,4.15
2023-05-19T13:26:50.257Z,2.78
2023-05-19T13:29:40.915Z,4.70
2023-05-19T13:32:28.307Z,4.47
2023-05-19T13:35:18.001Z,4.57
2023-05-19T13:38:12.202Z,4.55
2023-05-19T13:40:59.926Z,3.85
2023-05-19T13:43:51.227Z,4.30
2023-05-19T13:46:45.402Z,4.55
2023-05-19T13:49:34.026Z,4.40
2023-05-19T13:52:24.451Z,4.60
2023-05-19T13:55:12.837Z,4.55
2023-05-19T13:58:00.271Z,4.93
2023-05-19T14:00:48.001Z,4.78
2023-05-19T14:03:37.470Z,4.75
2023-05-19T14:06:28.878Z,4.68
2023-05-19T14:09:27.949Z,4.60
2023-05-19T14:12:27.535Z,4.45
2023-05-19T14:15:23.115Z,3.72
2023-05-19T14:18:20.454Z,4.43
2023-05-19T14:21:17.808Z,4.25
2023-05-19T14:24:05.375Z,4.10
2023-05-19T14:26:54.899Z,4.00
2023-05-19T14:29:45.583Z,3.92
2023-05-19T14:32:32.881Z,3.97
2023-05-19T14:38:33.710Z,3.95
2023-05-19T14:41:29.315Z,3.97
2023-05-19T14:44:38.510Z,5.35
2023-05-19T14:47:33.546Z,4.43
2023-05-19T14:50:24.164Z,4.28
2023-05-19T14:53:27.061Z,4.22
2023-05-19T14:59:03.113Z,4.30
2023-05-19T15:01:50.994Z,4.90
2023-05-19T15:04:38.522Z,4.47
2023-05-19T15:07:26.135Z,4.43
2023-05-19T15:10:13.460Z,3.45
2023-05-19T15:13:05.105Z,4.05
2023-05-19T15:19:06.136Z,4.60
2023-05-19T15:21:58.516Z,4.50
2023-05-19T15:25:09.622Z,5.30
2023-05-19T15:28:01.022Z,4.82
2023-05-19T15:30:48.458Z,4.30
2023-05-19T15:33:36.265Z,4.55
2023-05-19T15:36:24.375Z,4.68
2023-05-19T15:39:22.314Z,3.53
2023-05-19T15:42:12.654Z,4.22
2023-05-19T15:45:05.751Z,4.32
2023-05-19T15:47:55.978Z,4.03
2023-05-19T15:50:43.712Z,5.22
2023-05-19T15:53:33.785Z,5.72
2023-05-19T15:56:23.450Z,5.78
2023-05-19T15:59:14.437Z,4.88
2023-05-19T16:02:01.884Z,4.70
2023-05-19T16:04:52.059Z,5.05
2023-05-19T16:07:42.569Z,4.53
2023-05-19T16:10:49.211Z,4.43
2023-05-19T16:13:36.568Z,4.32
2023-05-19T16:16:24.329Z,4.55
2023-05-19T16:19:14.686Z,4.18
2023-05-19T16:22:02.120Z,4.00
2023-05-19T16:24:52.686Z,4.20
2023-05-19T16:27:39.975Z,4.13
2023-05-19T16:30:42.370Z,3.75
2023-05-19T16:33:30.618Z,4.50
2023-05-19T16:36:18.136Z,3.88
2023-05-19T16:39:06.113Z,4.45
2023-05-19T16:41:53.704Z,4.10
2023-05-19T16:44:50.140Z,4.30
2023-05-19T16:47:38.825Z,4.22
2023-05-19T16:50:26.345Z,4.82
2023-05-19T16:53:17.743Z,4.43
2023-05-19T16:56:07.287Z,4.22
2023-05-19T16:59:11.243Z,5.50
2023-05-19T17:02:00.638Z,4.45
2023-05-19T17:04:50.708Z,4.07
2023-05-19T17:07:42.392Z,3.85
2023-05-19T17:10:30.149Z,4.40
2023-05-19T17:13:17.459Z,4.13
2023-05-19T17:16:05.505Z,3.92
2023-05-19T17:18:56.666Z,4.85
2023-05-19T17:21:44.328Z,4.03
2023-05-19T17:24:33.454Z,3.97
2023-05-19T17:27:20.951Z,3.85
2023-05-19T17:30:14.556Z,3.72
2023-05-19T17:33:01.931Z,3.72
2023-05-19T17:35:54.584Z,3.88
2023-05-19T17:38:57.566Z,4.05
2023-05-19T17:45:06.441Z,4.20
2023-05-19T17:47:55.620Z,3.72
2023-05-19T17:50:53.216Z,3.95
2023-05-19T17:53:41.112Z,3.92
2023-05-19T17:59:41.219Z,3.67
2023-05-19T18:02:37.553Z,4.05
2023-05-19T18:05:39.861Z,3.63
2023-05-19T18:08:28.640Z,3.90
2023-05-19T18:11:16.880Z,3.67
2023-05-19T18:14:04.402Z,3.53
2023-05-19T18:16:51.736Z,3.47
2023-05-19T18:19:39.567Z,4.28
2023-05-19T18:22:27.118Z,3.80
2023-05-19T18:25:17.173Z,3.97
2023-05-19T18:28:05.133Z,4.30
2023-05-19T18:31:00.528Z,3.97
2023-05-19T18:33:48.790Z,3.88
2023-05-19T18:36:36.969Z,3.90
2023-05-19T18:39:29.153Z,3.80
2023-05-19T18:42:38.663Z,4.40
2023-05-19T18:45:26.497Z,4.15
2023-05-19T18:51:22.178Z,5.00
2023-05-19T18:54:12.868Z,4.28
2023-05-19T18:57:02.961Z,6.85
2023-05-19T18:59:50.602Z,9.25
2023-05-19T19:02:38.478Z,11.27
2023-05-19T19:05:26.407Z,11.23
2023-05-19T19:08:14.182Z,11.43
2023-05-19T19:11:04.706Z,12.88
2023-05-19T19:13:55.964Z,12.45
2023-05-19T19:16:43.602Z,9.20
2023-05-19T19:19:31.684Z,7.65
2023-05-19T19:22:21.180Z,8.23
2023-05-19T19:25:11.004Z,9.80
2023-05-19T19:27:58.804Z,9.40
2023-05-19T19:30:48.086Z,8.45
2023-05-19T19:33:36.511Z,9.63
2023-05-19T19:36:24.207Z,18.08
2023-05-19T19:39:12.488Z,14.75
2023-05-19T19:42:02.333Z,11.20
2023-05-19T19:44:50.696Z,11.82
2023-05-19T19:48:08.833Z,9.23
2023-05-19T19:50:58.170Z,6.60
2023-05-19T19:53:46.133Z,6.20
2023-05-19T19:56:34.934Z,6.47
2023-05-19T20:02:30.230Z,5.65
2023-05-19T20:05:20.230Z,5.75
2023-05-19T20:08:08.039Z,5.70
2023-05-19T20:10:55.916Z,6.10
2023-05-19T20:13:43.568Z,5.78
2023-05-19T20:16:32.044Z,5.72
2023-05-19T20:19:19.752Z,5.72
2023-05-19T20:22:07.213Z,5.28
2023-05-19T20:24:54.922Z,6.13
2023-05-19T20:27:42.343Z,5.35
2023-05-19T20:30:30.940Z,5.65
2023-05-19T20:33:18.514Z,5.72
2023-05-19T20:36:07.768Z,5.78
2023-05-19T20:38:55.298Z,5.63
2023-05-19T20:41:50.299Z,5.10
2023-05-19T20:44:37.804Z,5.05
2023-05-19T20:47:29.258Z,5.38
2023-05-19T20:53:08.217Z,5.78
2023-05-19T20:55:55.859Z,5.20
2023-05-19T20:58:43.806Z,4.90
2023-05-19T21:01:31.881Z,5.03
2023-05-19T21:04:19.695Z,4.82
2023-05-19T21:07:09.052Z,4.60
2023-05-19T21:10:00.268Z,5.68
2023-05-19T21:12:48.226Z,5.45
2023-05-19T21:15:36.126Z,4.95
2023-05-19T21:18:27.942Z,5.32
2023-05-19T21:21:15.940Z,6.73
2023-05-19T21:24:03.726Z,4.85
2023-05-19T21:26:51.712Z,5.38
2023-05-19T21:30:13.583Z,6.00
2023-05-19T21:33:01.818Z,6.28
2023-05-19T21:35:49.699Z,6.25
2023-05-19T21:38:40.197Z,6.13
2023-05-19T21:41:27.751Z,6.40
2023-05-19T21:44:15.335Z,6.53
2023-05-19T21:47:03.313Z,5.10
2023-05-19T21:49:53.083Z,5.97
2023-05-19T21:52:40.734Z,5.57
2023-05-19T21:55:28.324Z,5.57
2023-05-19T21:58:16.294Z,4.97
2023-05-19T22:01:23.683Z,5.55
2023-05-19T22:04:11.605Z,6.03
2023-05-19T22:06:59.383Z,5.80
2023-05-19T22:09:48.741Z,5.10
2023-05-19T22:12:36.383Z,6.25
2023-05-19T22:15:23.955Z,7.10
2023-05-19T22:18:11.965Z,6.05
2023-05-19T22:21:01.895Z,7.75
2023-05-19T22:23:49.181Z,6.53
2023-05-19T22:26:36.886Z,6.70
2023-05-19T22:29:24.685Z,5.57
2023-05-19T22:32:12.430Z,5.45
2023-05-19T22:34:59.882Z,5.47
2023-05-19T22:37:47.192Z,6.07
2023-05-19T22:40:34.987Z,5.70
2023-05-19T22:43:25.340Z,5.35
2023-05-19T22:46:12.654Z,5.40
2023-05-19T22:49:00.046Z,4.97
2023-05-19T22:51:49.056Z,5.25
2023-05-19T22:54:36.778Z,5.22
2023-05-19T22:57:25.986Z,5.25
2023-05-19T23:00:18.842Z,5.28
2023-05-19T23:03:06.334Z,5.05
2023-05-19T23:05:54.001Z,6.05
2023-05-19T23:08:41.411Z,6.30
2023-05-19T23:11:28.820Z,6.35
2023-05-19T23:14:16.522Z,5.43
2023-05-19T23:17:04.064Z,4.55
2023-05-19T23:19:51.687Z,5.93
2023-05-19T23:22:38.999Z,5.55
2023-05-19T23:25:26.741Z,5.60
2023-05-19T23:28:14.497Z,5.43
2023-05-19T23:31:01.782Z,5.32
2023-05-19T23:33:50.057Z,6.03
2023-05-19T23:36:37.449Z,5.45
2023-05-19T23:39:26.444Z,5.20
2023-05-19T23:42:13.951Z,5.70
2023-05-19T23:45:01.342Z,5.63
2023-05-19T23:47:48.785Z,5.45
2023-05-19T23:50:36.051Z,5.40
2023-05-19T23:53:23.478Z,5.97
2023-05-19T23:56:11.529Z,5.50
2023-05-19T23:58:59.356Z,5.85
